Dumfries, United Kingdom
Current Conditions -  °F | °C
As of 8:20 AM on Tuesday 21 Oct 2014 (Local Time) from EGNC Reporting Station
Rain Showers Rain Showers  
Wind Chill: 41°   Ceiling: 2000
Heat Index: 48°   Visibility: 6mi
Dew Point: 43°   Wind: 21mph
Humidity: 82%   Direction: 260°W
Pressure: 29.29"   Gusts: 33mph
Location:  55.07°N, 3.61°W
Report Text: EGNC 210720Z 26018G29KT 9999 VCSH FEW013 BKN020 09/06 Q0992
Loading
Personal Weather Stations






























Interactive Weather Map New forecast layout! Learn more

10-Day Weather Forecast

Advertisements
Track Severe Weather on mobile